sensor_id;sensor_type;location;lat;lon;timestamp;pressure;altitude;pressure_sealevel;temperature;humidity
39593;BME280;25286;48.870;9.084;2022-08-19T00:00:25;97565.75;;;20.26;78.88
39593;BME280;25286;48.870;9.084;2022-08-19T00:02:53;97570.09;;;20.19;79.09
39593;BME280;25286;48.870;9.084;2022-08-19T00:05:20;97563.78;;;20.27;78.99
39593;BME280;25286;48.870;9.084;2022-08-19T00:07:46;97570.63;;;20.21;78.97
39593;BME280;25286;48.870;9.084;2022-08-19T00:10:13;97558.69;;;20.29;78.60
39593;BME280;25286;48.870;9.084;2022-08-19T00:12:40;97569.69;;;20.34;78.18
39593;BME280;25286;48.870;9.084;2022-08-19T00:15:09;97561.53;;;20.38;78.06
39593;BME280;25286;48.870;9.084;2022-08-19T00:17:44;97571.03;;;20.37;78.13
39593;BME280;25286;48.870;9.084;2022-08-19T00:20:12;97564.44;;;20.33;78.08
39593;BME280;25286;48.870;9.084;2022-08-19T00:22:39;97575.66;;;20.41;77.73
39593;BME280;25286;48.870;9.084;2022-08-19T00:25:06;97580.06;;;20.42;77.79
39593;BME280;25286;48.870;9.084;2022-08-19T00:27:33;97573.28;;;20.48;77.39
39593;BME280;25286;48.870;9.084;2022-08-19T00:29:58;97575.97;;;20.40;77.72
39593;BME280;25286;48.870;9.084;2022-08-19T00:32:24;97572.88;;;20.41;78.01
39593;BME280;25286;48.870;9.084;2022-08-19T00:34:51;97568.44;;;20.40;77.87
39593;BME280;25286;48.870;9.084;2022-08-19T00:37:19;97561.31;;;20.25;78.43
39593;BME280;25286;48.870;9.084;2022-08-19T00:39:48;97554.41;;;20.23;78.63
39593;BME280;25286;48.870;9.084;2022-08-19T00:42:13;97552.91;;;20.17;78.75
39593;BME280;25286;48.870;9.084;2022-08-19T00:44:41;97543.00;;;20.11;79.18
39593;BME280;25286;48.870;9.084;2022-08-19T00:47:06;97532.69;;;20.11;79.32
39593;BME280;25286;48.870;9.084;2022-08-19T00:49:39;97523.50;;;20.11;79.40
39593;BME280;25286;48.870;9.084;2022-08-19T00:52:08;97531.25;;;20.14;79.18
39593;BME280;25286;48.870;9.084;2022-08-19T00:54:36;97537.31;;;20.16;79.31
39593;BME280;25286;48.870;9.084;2022-08-19T00:57:05;97539.28;;;20.15;79.28
39593;BME280;25286;48.870;9.084;2022-08-19T00:59:34;97542.63;;;20.26;78.69
39593;BME280;25286;48.870;9.084;2022-08-19T01:02:01;97544.91;;;20.24;79.04
39593;BME280;25286;48.870;9.084;2022-08-19T01:04:27;97548.19;;;20.26;79.00
39593;BME280;25286;48.870;9.084;2022-08-19T01:06:53;97563.56;;;20.23;78.48
39593;BME280;25286;48.870;9.084;2022-08-19T01:09:18;97565.41;;;20.28;78.93
39593;BME280;25286;48.870;9.084;2022-08-19T01:11:44;97563.09;;;20.21;79.01
39593;BME280;25286;48.870;9.084;2022-08-19T01:14:10;97551.00;;;20.26;78.93
39593;BME280;25286;48.870;9.084;2022-08-19T01:16:37;97562.69;;;20.14;79.22
39593;BME280;25286;48.870;9.084;2022-08-19T01:19:12;97550.78;;;20.22;79.03
39593;BME280;25286;48.870;9.084;2022-08-19T01:21:44;97557.19;;;20.23;79.05
39593;BME280;25286;48.870;9.084;2022-08-19T01:24:14;97558.34;;;20.22;79.25
39593;BME280;25286;48.870;9.084;2022-08-19T01:26:42;97540.41;;;20.14;79.52
39593;BME280;25286;48.870;9.084;2022-08-19T01:29:09;97540.06;;;20.07;79.84
39593;BME280;25286;48.870;9.084;2022-08-19T01:31:36;97545.09;;;20.05;80.01
39593;BME280;25286;48.870;9.084;2022-08-19T01:34:03;97556.56;;;20.03;80.39
39593;BME280;25286;48.870;9.084;2022-08-19T01:36:35;97555.44;;;20.04;80.35
39593;BME280;25286;48.870;9.084;2022-08-19T01:39:04;97545.72;;;20.02;80.74
39593;BME280;25286;48.870;9.084;2022-08-19T01:41:30;97547.69;;;20.01;80.76
39593;BME280;25286;48.870;9.084;2022-08-19T01:43:56;97548.16;;;19.95;81.13
39593;BME280;25286;48.870;9.084;2022-08-19T01:46:22;97543.00;;;19.88;81.57
39593;BME280;25286;48.870;9.084;2022-08-19T01:48:48;97553.34;;;19.88;81.84
39593;BME280;25286;48.870;9.084;2022-08-19T01:51:14;97547.63;;;19.93;81.68
39593;BME280;25286;48.870;9.084;2022-08-19T01:53:40;97543.66;;;19.85;82.07
39593;BME280;25286;48.870;9.084;2022-08-19T01:56:06;97542.31;;;19.83;82.17
39593;BME280;25286;48.870;9.084;2022-08-19T01:58:36;97537.41;;;19.79;82.29
39593;BME280;25286;48.870;9.084;2022-08-19T02:01:05;97535.31;;;19.85;82.42
39593;BME280;25286;48.870;9.084;2022-08-19T02:03:31;97533.34;;;19.86;82.45
39593;BME280;25286;48.870;9.084;2022-08-19T02:05:58;97545.94;;;19.83;82.42
39593;BME280;25286;48.870;9.084;2022-08-19T02:08:29;97547.06;;;19.82;82.48
39593;BME280;25286;48.870;9.084;2022-08-19T02:10:56;97553.16;;;19.84;82.51
39593;BME280;25286;48.870;9.084;2022-08-19T02:13:23;97557.06;;;19.83;82.39
39593;BME280;25286;48.870;9.084;2022-08-19T02:15:48;97561.53;;;19.84;82.36
39593;BME280;25286;48.870;9.084;2022-08-19T02:18:14;97551.00;;;19.81;82.53
39593;BME280;25286;48.870;9.084;2022-08-19T02:20:41;97548.28;;;19.67;83.01
39593;BME280;25286;48.870;9.084;2022-08-19T02:23:07;97540.63;;;19.73;82.91
39593;BME280;25286;48.870;9.084;2022-08-19T02:25:33;97541.75;;;19.72;82.75
39593;BME280;25286;48.870;9.084;2022-08-19T02:27:59;97549.72;;;19.65;83.32
39593;BME280;25286;48.870;9.084;2022-08-19T02:30:24;97544.69;;;19.53;83.79
39593;BME280;25286;48.870;9.084;2022-08-19T02:32:51;97543.97;;;19.61;83.64
39593;BME280;25286;48.870;9.084;2022-08-19T02:35:17;97542.50;;;19.64;83.53
39593;BME280;25286;48.870;9.084;2022-08-19T02:37:43;97549.00;;;19.59;83.52
39593;BME280;25286;48.870;9.084;2022-08-19T02:40:28;97550.94;;;19.59;83.53
39593;BME280;25286;48.870;9.084;2022-08-19T02:42:54;97553.34;;;19.51;84.02
39593;BME280;25286;48.870;9.084;2022-08-19T02:45:20;97542.94;;;19.57;83.94
39593;BME280;25286;48.870;9.084;2022-08-19T02:47:46;97544.88;;;19.57;83.90
39593;BME280;25286;48.870;9.084;2022-08-19T02:50:12;97553.44;;;19.46;84.19
39593;BME280;25286;48.870;9.084;2022-08-19T02:52:38;97545.31;;;19.50;84.16
39593;BME280;25286;48.870;9.084;2022-08-19T02:55:04;97548.94;;;19.37;84.60
39593;BME280;25286;48.870;9.084;2022-08-19T02:57:30;97550.88;;;19.50;84.18
39593;BME280;25286;48.870;9.084;2022-08-19T02:59:57;97550.38;;;19.48;84.21
39593;BME280;25286;48.870;9.084;2022-08-19T03:02:22;97549.88;;;19.32;84.61
39593;BME280;25286;48.870;9.084;2022-08-19T03:04:48;97551.13;;;19.40;84.67
39593;BME280;25286;48.870;9.084;2022-08-19T03:07:15;97543.09;;;19.38;84.52
39593;BME280;25286;48.870;9.084;2022-08-19T03:09:41;97541.53;;;19.32;84.69
39593;BME280;25286;48.870;9.084;2022-08-19T03:12:07;97543.09;;;19.38;84.82
39593;BME280;25286;48.870;9.084;2022-08-19T03:14:34;97547.75;;;19.29;85.08
39593;BME280;25286;48.870;9.084;2022-08-19T03:16:59;97543.00;;;19.29;84.95
39593;BME280;25286;48.870;9.084;2022-08-19T03:19:25;97547.84;;;19.24;85.39
39593;BME280;25286;48.870;9.084;2022-08-19T03:21:51;97558.22;;;19.32;85.16
39593;BME280;25286;48.870;9.084;2022-08-19T03:24:18;97556.78;;;19.35;85.08
39593;BME280;25286;48.870;9.084;2022-08-19T03:26:49;97553.28;;;19.43;84.73
39593;BME280;25286;48.870;9.084;2022-08-19T03:29:15;97555.97;;;19.34;84.96
39593;BME280;25286;48.870;9.084;2022-08-19T03:31:42;97560.53;;;19.16;85.87
39593;BME280;25286;48.870;9.084;2022-08-19T03:34:10;97560.81;;;19.15;86.10
39593;BME280;25286;48.870;9.084;2022-08-19T03:36:37;97553.63;;;19.14;86.12
39593;BME280;25286;48.870;9.084;2022-08-19T03:39:03;97556.19;;;19.10;86.37
39593;BME280;25286;48.870;9.084;2022-08-19T03:41:31;97546.63;;;19.16;85.94
39593;BME280;25286;48.870;9.084;2022-08-19T03:43:58;97556.41;;;19.14;86.29
39593;BME280;25286;48.870;9.084;2022-08-19T03:46:26;97560.31;;;19.13;86.26
39593;BME280;25286;48.870;9.084;2022-08-19T03:48:53;97556.63;;;19.03;86.60
39593;BME280;25286;48.870;9.084;2022-08-19T03:53:51;97546.56;;;18.94;87.47
39593;BME280;25286;48.870;9.084;2022-08-19T03:56:17;97550.56;;;19.01;87.50
39593;BME280;25286;48.870;9.084;2022-08-19T03:58:43;97552.94;;;18.94;87.81
39593;BME280;25286;48.870;9.084;2022-08-19T04:01:11;97564.16;;;19.03;87.70
39593;BME280;25286;48.870;9.084;2022-08-19T04:03:38;97568.19;;;18.97;87.91
39593;BME280;25286;48.870;9.084;2022-08-19T04:06:14;97558.72;;;18.98;87.61
39593;BME280;25286;48.870;9.084;2022-08-19T04:08:44;97565.31;;;18.88;88.13
39593;BME280;25286;48.870;9.084;2022-08-19T04:11:14;97561.38;;;18.89;88.00
39593;BME280;25286;48.870;9.084;2022-08-19T04:13:40;97560.84;;;18.87;88.07
39593;BME280;25286;48.870;9.084;2022-08-19T04:16:06;97562.19;;;18.90;88.08
39593;BME280;25286;48.870;9.084;2022-08-19T04:18:36;97563.34;;;18.89;88.12
39593;BME280;25286;48.870;9.084;2022-08-19T04:21:03;97566.34;;;18.92;87.92
39593;BME280;25286;48.870;9.084;2022-08-19T04:23:29;97563.44;;;18.97;87.39
39593;BME280;25286;48.870;9.084;2022-08-19T04:25:55;97559.53;;;18.85;87.94
39593;BME280;25286;48.870;9.084;2022-08-19T04:28:21;97566.34;;;18.92;87.76
39593;BME280;25286;48.870;9.084;2022-08-19T04:30:50;97560.13;;;18.82;88.14
39593;BME280;25286;48.870;9.084;2022-08-19T04:33:17;97562.53;;;18.88;88.23
39593;BME280;25286;48.870;9.084;2022-08-19T04:35:46;97548.09;;;18.86;88.15
39593;BME280;25286;48.870;9.084;2022-08-19T04:38:14;97545.72;;;18.93;88.04
39593;BME280;25286;48.870;9.084;2022-08-19T04:40:41;97545.94;;;18.83;88.09
39593;BME280;25286;48.870;9.084;2022-08-19T04:43:26;97545.09;;;18.83;88.45
39593;BME280;25286;48.870;9.084;2022-08-19T04:45:52;97553.38;;;18.88;88.27
39593;BME280;25286;48.870;9.084;2022-08-19T04:48:18;97557.47;;;18.90;87.97
39593;BME280;25286;48.870;9.084;2022-08-19T04:50:55;97566.94;;;18.89;88.01
39593;BME280;25286;48.870;9.084;2022-08-19T04:53:28;97570.03;;;18.88;87.73
39593;BME280;25286;48.870;9.084;2022-08-19T04:56:10;97565.47;;;18.92;87.94
39593;BME280;25286;48.870;9.084;2022-08-19T04:58:38;97566.63;;;18.91;88.09
39593;BME280;25286;48.870;9.084;2022-08-19T05:01:04;97565.19;;;18.93;87.99
39593;BME280;25286;48.870;9.084;2022-08-19T05:03:30;97572.91;;;18.96;87.76
39593;BME280;25286;48.870;9.084;2022-08-19T05:06:06;97575.19;;;18.94;88.03
39593;BME280;25286;48.870;9.084;2022-08-19T05:08:34;97577.47;;;18.92;88.09
39593;BME280;25286;48.870;9.084;2022-08-19T05:11:00;97577.03;;;18.99;87.92
39593;BME280;25286;48.870;9.084;2022-08-19T05:13:26;97580.53;;;18.91;88.35
39593;BME280;25286;48.870;9.084;2022-08-19T05:15:56;97587.13;;;18.95;88.39
39593;BME280;25286;48.870;9.084;2022-08-19T05:18:22;97592.47;;;18.91;88.56
39593;BME280;25286;48.870;9.084;2022-08-19T05:21:09;97587.66;;;18.97;88.63
39593;BME280;25286;48.870;9.084;2022-08-19T05:23:53;97600.41;;;18.98;88.43
39593;BME280;25286;48.870;9.084;2022-08-19T05:26:19;97597.84;;;19.01;88.39
39593;BME280;25286;48.870;9.084;2022-08-19T05:28:45;97603.91;;;19.03;88.47
39593;BME280;25286;48.870;9.084;2022-08-19T05:31:10;97609.34;;;19.09;88.53
39593;BME280;25286;48.870;9.084;2022-08-19T05:33:36;97614.91;;;19.09;88.50
39593;BME280;25286;48.870;9.084;2022-08-19T05:36:03;97632.84;;;19.16;88.14
39593;BME280;25286;48.870;9.084;2022-08-19T05:38:29;97631.38;;;19.19;88.02
39593;BME280;25286;48.870;9.084;2022-08-19T05:40:55;97642.34;;;19.15;88.02
39593;BME280;25286;48.870;9.084;2022-08-19T05:43:21;97651.38;;;19.21;87.79
39593;BME280;25286;48.870;9.084;2022-08-19T05:45:47;97656.53;;;19.27;87.67
39593;BME280;25286;48.870;9.084;2022-08-19T05:48:13;97658.00;;;19.25;87.51
39593;BME280;25286;48.870;9.084;2022-08-19T05:50:40;97654.06;;;19.12;87.83
39593;BME280;25286;48.870;9.084;2022-08-19T05:53:07;97649.00;;;19.14;88.16
39593;BME280;25286;48.870;9.084;2022-08-19T05:55:34;97650.75;;;19.24;88.04
39593;BME280;25286;48.870;9.084;2022-08-19T05:58:00;97646.97;;;19.06;88.50
39593;BME280;25286;48.870;9.084;2022-08-19T06:00:27;97653.25;;;19.12;88.49
39593;BME280;25286;48.870;9.084;2022-08-19T06:02:52;97656.31;;;19.10;88.63
39593;BME280;25286;48.870;9.084;2022-08-19T06:05:19;97657.47;;;19.09;88.62
39593;BME280;25286;48.870;9.084;2022-08-19T06:07:45;97657.47;;;19.09;88.56
39593;BME280;25286;48.870;9.084;2022-08-19T06:10:11;97663.72;;;19.15;88.52
39593;BME280;25286;48.870;9.084;2022-08-19T06:12:37;97656.63;;;19.09;88.58
39593;BME280;25286;48.870;9.084;2022-08-19T06:15:08;97654.47;;;19.19;88.33
39593;BME280;25286;48.870;9.084;2022-08-19T06:17:34;97647.91;;;19.01;89.00
39593;BME280;25286;48.870;9.084;2022-08-19T06:20:02;97647.91;;;19.01;89.20
39593;BME280;25286;48.870;9.084;2022-08-19T06:22:28;97652.72;;;19.10;89.11
39593;BME280;25286;48.870;9.084;2022-08-19T06:24:55;97650.69;;;19.15;88.81
39593;BME280;25286;48.870;9.084;2022-08-19T06:27:21;97646.88;;;19.11;88.84
39593;BME280;25286;48.870;9.084;2022-08-19T06:29:47;97650.34;;;19.03;89.15
39593;BME280;25286;48.870;9.084;2022-08-19T06:32:15;97647.03;;;19.01;89.30
39593;BME280;25286;48.870;9.084;2022-08-19T06:34:41;97644.25;;;19.01;89.10
39593;BME280;25286;48.870;9.084;2022-08-19T06:37:07;97647.03;;;19.01;89.02
39593;BME280;25286;48.870;9.084;2022-08-19T06:39:35;97652.19;;;18.94;88.92
39593;BME280;25286;48.870;9.084;2022-08-19T06:42:04;97650.75;;;19.10;88.52
39593;BME280;25286;48.870;9.084;2022-08-19T06:44:35;97641.81;;;18.99;88.60
39593;BME280;25286;48.870;9.084;2022-08-19T06:47:03;97649.00;;;19.00;88.58
39593;BME280;25286;48.870;9.084;2022-08-19T06:49:29;97655.59;;;19.18;88.09
39593;BME280;25286;48.870;9.084;2022-08-19T06:51:56;97657.78;;;19.08;87.96
39593;BME280;25286;48.870;9.084;2022-08-19T06:54:22;97665.28;;;19.07;88.16
39593;BME280;25286;48.870;9.084;2022-08-19T06:56:48;97670.13;;;19.01;88.12
39593;BME280;25286;48.870;9.084;2022-08-19T06:59:18;97675.88;;;19.05;88.20
39593;BME280;25286;48.870;9.084;2022-08-19T07:01:49;97672.00;;;19.06;87.83
39593;BME280;25286;48.870;9.084;2022-08-19T07:04:17;97664.66;;;18.96;88.17
39593;BME280;25286;48.870;9.084;2022-08-19T07:06:43;97653.84;;;19.09;87.73
39593;BME280;25286;48.870;9.084;2022-08-19T07:09:10;97653.63;;;19.19;87.30
39593;BME280;25286;48.870;9.084;2022-08-19T07:11:36;97658.59;;;19.22;87.20
39593;BME280;25286;48.870;9.084;2022-08-19T07:14:02;97664.06;;;19.13;86.97
39593;BME280;25286;48.870;9.084;2022-08-19T07:16:28;97673.66;;;19.21;86.73
39593;BME280;25286;48.870;9.084;2022-08-19T07:18:54;97671.38;;;19.23;86.65
39593;BME280;25286;48.870;9.084;2022-08-19T07:21:26;97669.94;;;19.25;86.44
39593;BME280;25286;48.870;9.084;2022-08-19T07:23:54;97667.25;;;19.20;86.72
39593;BME280;25286;48.870;9.084;2022-08-19T07:26:29;97674.47;;;19.35;86.15
39593;BME280;25286;48.870;9.084;2022-08-19T07:28:56;97673.09;;;19.46;85.58
39593;BME280;25286;48.870;9.084;2022-08-19T07:31:24;97675.38;;;19.44;85.35
39593;BME280;25286;48.870;9.084;2022-08-19T07:33:51;97683.63;;;19.49;85.33
39593;BME280;25286;48.870;9.084;2022-08-19T07:36:20;97690.00;;;19.50;85.24
39593;BME280;25286;48.870;9.084;2022-08-19T07:38:48;97677.63;;;19.42;85.35
39593;BME280;25286;48.870;9.084;2022-08-19T07:41:17;97685.78;;;19.52;85.38
39593;BME280;25286;48.870;9.084;2022-08-19T07:43:43;97684.13;;;19.51;85.35
39593;BME280;25286;48.870;9.084;2022-08-19T07:46:10;97686.19;;;19.46;85.40
39593;BME280;25286;48.870;9.084;2022-08-19T07:48:37;97692.38;;;19.57;85.46
39593;BME280;25286;48.870;9.084;2022-08-19T07:51:05;97686.31;;;19.41;85.81
39593;BME280;25286;48.870;9.084;2022-08-19T07:53:34;97684.66;;;19.53;85.47
39593;BME280;25286;48.870;9.084;2022-08-19T07:56:01;97682.09;;;19.43;85.70
39593;BME280;25286;48.870;9.084;2022-08-19T07:58:32;97686.28;;;19.54;85.30
39593;BME280;25286;48.870;9.084;2022-08-19T08:00:58;97691.75;;;19.46;85.53
39593;BME280;25286;48.870;9.084;2022-08-19T08:03:24;97691.53;;;19.42;85.83
39593;BME280;25286;48.870;9.084;2022-08-19T08:06:10;97685.91;;;19.47;85.78
39593;BME280;25286;48.870;9.084;2022-08-19T08:08:54;97691.38;;;19.39;86.07
39593;BME280;25286;48.870;9.084;2022-08-19T08:11:44;97694.25;;;19.47;85.96
39593;BME280;25286;48.870;9.084;2022-08-19T08:14:25;97696.28;;;19.42;86.20
39593;BME280;25286;48.870;9.084;2022-08-19T08:16:52;97695.38;;;19.46;86.05
39593;BME280;25286;48.870;9.084;2022-08-19T08:19:19;97698.16;;;19.46;86.06
39593;BME280;25286;48.870;9.084;2022-08-19T08:21:47;97696.94;;;19.52;86.07
39593;BME280;25286;48.870;9.084;2022-08-19T08:24:13;97702.66;;;19.56;86.02
39593;BME280;25286;48.870;9.084;2022-08-19T08:26:39;97698.16;;;19.60;85.77
39593;BME280;25286;48.870;9.084;2022-08-19T08:29:06;97698.97;;;19.61;85.73
39593;BME280;25286;48.870;9.084;2022-08-19T08:31:35;97700.66;;;19.62;85.54
39593;BME280;25286;48.870;9.084;2022-08-19T08:34:02;97703.53;;;19.70;85.46
39593;BME280;25286;48.870;9.084;2022-08-19T08:36:27;97701.16;;;19.64;85.66
39593;BME280;25286;48.870;9.084;2022-08-19T08:38:53;97701.13;;;19.77;85.18
39593;BME280;25286;48.870;9.084;2022-08-19T08:43:58;97694.50;;;19.87;85.50
39593;BME280;25286;48.870;9.084;2022-08-19T08:46:37;97694.50;;;19.87;85.20
39593;BME280;25286;48.870;9.084;2022-08-19T08:51:42;97701.22;;;19.86;85.42
39593;BME280;25286;48.870;9.084;2022-08-19T08:54:13;97706.88;;;19.95;85.40
39593;BME280;25286;48.870;9.084;2022-08-19T08:56:41;97694.06;;;20.08;84.97
39593;BME280;25286;48.870;9.084;2022-08-19T08:59:24;97697.22;;;20.15;84.97
39593;BME280;25286;48.870;9.084;2022-08-19T09:01:53;97695.09;;;20.12;85.03
39593;BME280;25286;48.870;9.084;2022-08-19T09:04:19;97702.06;;;20.23;84.48
39593;BME280;25286;48.870;9.084;2022-08-19T09:07:10;97702.69;;;20.20;84.58
39593;BME280;25286;48.870;9.084;2022-08-19T09:09:45;97699.66;;;20.30;84.41
39593;BME280;25286;48.870;9.084;2022-08-19T09:12:26;97698.41;;;20.36;84.27
39593;BME280;25286;48.870;9.084;2022-08-19T09:15:00;97700.81;;;20.51;83.89
39593;BME280;25286;48.870;9.084;2022-08-19T09:17:29;97698.09;;;20.60;83.34
39593;BME280;25286;48.870;9.084;2022-08-19T09:20:21;97699.13;;;20.64;83.24
39593;BME280;25286;48.870;9.084;2022-08-19T09:22:47;97697.53;;;20.72;83.14
39593;BME280;25286;48.870;9.084;2022-08-19T09:25:18;97709.81;;;20.71;82.99
39593;BME280;25286;48.870;9.084;2022-08-19T09:27:47;97710.06;;;20.83;82.83
39593;BME280;25286;48.870;9.084;2022-08-19T09:30:18;97713.00;;;20.55;83.08
39593;BME280;25286;48.870;9.084;2022-08-19T09:32:44;97711.41;;;20.63;83.20
39593;BME280;25286;48.870;9.084;2022-08-19T09:35:11;97710.59;;;20.63;82.93
39593;BME280;25286;48.870;9.084;2022-08-19T09:37:37;97716.59;;;20.56;83.12
39593;BME280;25286;48.870;9.084;2022-08-19T09:40:04;97717.28;;;20.62;83.20
39593;BME280;25286;48.870;9.084;2022-08-19T09:42:29;97713.63;;;20.52;83.50
39593;BME280;25286;48.870;9.084;2022-08-19T09:44:55;97705.97;;;20.58;83.53
39593;BME280;25286;48.870;9.084;2022-08-19T09:47:21;97718.19;;;20.48;83.74
39593;BME280;25286;48.870;9.084;2022-08-19T09:49:46;97711.97;;;20.51;83.69
39593;BME280;25286;48.870;9.084;2022-08-19T09:52:14;97707.28;;;20.61;83.48
39593;BME280;25286;48.870;9.084;2022-08-19T09:54:41;97711.22;;;20.60;83.32
39593;BME280;25286;48.870;9.084;2022-08-19T09:57:07;97714.97;;;20.55;83.44
39593;BME280;25286;48.870;9.084;2022-08-19T09:59:33;97711.84;;;20.56;83.55
39593;BME280;25286;48.870;9.084;2022-08-19T10:04:26;97717.88;;;20.72;82.91
39593;BME280;25286;48.870;9.084;2022-08-19T10:07:12;97720.34;;;20.74;82.79
39593;BME280;25286;48.870;9.084;2022-08-19T10:09:38;97717.88;;;20.72;82.75
39593;BME280;25286;48.870;9.084;2022-08-19T10:12:07;97710.06;;;20.83;82.72
39593;BME280;25286;48.870;9.084;2022-08-19T10:14:33;97711.03;;;20.78;82.57
39593;BME280;25286;48.870;9.084;2022-08-19T10:16:59;97714.00;;;20.82;82.21
39593;BME280;25286;48.870;9.084;2022-08-19T10:19:28;97712.22;;;20.86;81.94
39593;BME280;25286;48.870;9.084;2022-08-19T10:21:57;97715.84;;;20.87;81.65
39593;BME280;25286;48.870;9.084;2022-08-19T10:24:23;97715.19;;;20.90;81.45
39593;BME280;25286;48.870;9.084;2022-08-19T10:26:50;97708.19;;;21.01;81.08
39593;BME280;25286;48.870;9.084;2022-08-19T10:29:16;97716.75;;;21.04;80.29
39593;BME280;25286;48.870;9.084;2022-08-19T10:31:42;97706.22;;;21.01;79.97
39593;BME280;25286;48.870;9.084;2022-08-19T10:34:08;97710.78;;;20.97;79.83
39593;BME280;25286;48.870;9.084;2022-08-19T10:36:36;97708.75;;;21.12;79.38
39593;BME280;25286;48.870;9.084;2022-08-19T10:39:07;97703.72;;;21.22;78.76
39593;BME280;25286;48.870;9.084;2022-08-19T10:41:35;97708.22;;;21.32;78.50
39593;BME280;25286;48.870;9.084;2022-08-19T10:44:05;97694.94;;;21.38;77.82
39593;BME280;25286;48.870;9.084;2022-08-19T10:46:32;97683.66;;;21.51;77.26
39593;BME280;25286;48.870;9.084;2022-08-19T10:49:00;97687.78;;;21.54;76.28
39593;BME280;25286;48.870;9.084;2022-08-19T10:51:26;97675.00;;;21.70;75.85
39593;BME280;25286;48.870;9.084;2022-08-19T10:54:11;97684.22;;;21.79;75.19
39593;BME280;25286;48.870;9.084;2022-08-19T10:56:36;97690.47;;;21.85;74.86
39593;BME280;25286;48.870;9.084;2022-08-19T10:59:26;97690.47;;;21.94;74.92
39593;BME280;25286;48.870;9.084;2022-08-19T11:01:54;97690.00;;;22.00;74.64
39593;BME280;25286;48.870;9.084;2022-08-19T11:04:20;97688.69;;;21.98;74.72
39593;BME280;25286;48.870;9.084;2022-08-19T11:06:49;97691.47;;;21.89;73.59
39593;BME280;25286;48.870;9.084;2022-08-19T11:09:16;97696.75;;;21.99;74.00
39593;BME280;25286;48.870;9.084;2022-08-19T11:11:43;97697.06;;;21.98;73.51
39593;BME280;25286;48.870;9.084;2022-08-19T11:14:11;97694.94;;;22.03;72.72
39593;BME280;25286;48.870;9.084;2022-08-19T11:16:37;97685.41;;;22.04;72.43
39593;BME280;25286;48.870;9.084;2022-08-19T11:19:04;97683.59;;;22.00;71.35
39593;BME280;25286;48.870;9.084;2022-08-19T11:21:34;97681.81;;;22.04;71.14
39593;BME280;25286;48.870;9.084;2022-08-19T11:24:04;97690.50;;;22.02;70.80
39593;BME280;25286;48.870;9.084;2022-08-19T11:26:32;97684.44;;;22.09;71.02
39593;BME280;25286;48.870;9.084;2022-08-19T11:28:59;97674.75;;;22.15;70.40
39593;BME280;25286;48.870;9.084;2022-08-19T11:31:28;97675.09;;;22.22;70.34
39593;BME280;25286;48.870;9.084;2022-08-19T11:33:56;97675.94;;;22.23;70.00
39593;BME280;25286;48.870;9.084;2022-08-19T11:36:22;97677.06;;;22.22;70.18
39593;BME280;25286;48.870;9.084;2022-08-19T11:38:48;97677.38;;;22.29;70.02
39593;BME280;25286;48.870;9.084;2022-08-19T11:41:16;97686.13;;;22.27;69.83
39593;BME280;25286;48.870;9.084;2022-08-19T11:43:42;97684.13;;;22.28;69.92
39593;BME280;25286;48.870;9.084;2022-08-19T11:46:09;97691.84;;;22.40;69.88
39593;BME280;25286;48.870;9.084;2022-08-19T11:48:36;97681.66;;;22.35;69.77
39593;BME280;25286;48.870;9.084;2022-08-19T11:51:10;97682.47;;;22.44;69.53
39593;BME280;25286;48.870;9.084;2022-08-19T11:53:36;97673.91;;;22.58;68.93
39593;BME280;25286;48.870;9.084;2022-08-19T11:56:04;97672.72;;;22.68;68.08
39593;BME280;25286;48.870;9.084;2022-08-19T11:58:30;97678.00;;;22.78;67.47
39593;BME280;25286;48.870;9.084;2022-08-19T12:00:56;97681.91;;;22.86;67.74
39593;BME280;25286;48.870;9.084;2022-08-19T12:03:23;97675.03;;;22.83;67.27
39593;BME280;25286;48.870;9.084;2022-08-19T12:05:48;97678.97;;;22.91;67.14
39593;BME280;25286;48.870;9.084;2022-08-19T12:08:15;97678.47;;;22.80;66.98
39593;BME280;25286;48.870;9.084;2022-08-19T12:10:41;97677.03;;;22.74;66.18
39593;BME280;25286;48.870;9.084;2022-08-19T12:13:09;97679.84;;;22.65;66.18
39593;BME280;25286;48.870;9.084;2022-08-19T12:15:39;97668.31;;;22.67;66.75
39593;BME280;25286;48.870;9.084;2022-08-19T12:18:07;97663.41;;;22.64;67.58
39593;BME280;25286;48.870;9.084;2022-08-19T12:20:38;97665.19;;;22.68;66.31
39593;BME280;25286;48.870;9.084;2022-08-19T12:23:05;97659.25;;;22.70;66.47
39593;BME280;25286;48.870;9.084;2022-08-19T12:25:31;97653.81;;;22.82;66.05
39593;BME280;25286;48.870;9.084;2022-08-19T12:27:58;97669.25;;;22.88;65.11
39593;BME280;25286;48.870;9.084;2022-08-19T12:30:24;97665.31;;;22.80;64.74
39593;BME280;25286;48.870;9.084;2022-08-19T12:32:51;97655.75;;;22.90;64.03
39593;BME280;25286;48.870;9.084;2022-08-19T12:35:17;97652.66;;;22.92;64.05
39593;BME280;25286;48.870;9.084;2022-08-19T12:37:46;97658.53;;;22.99;63.55
39593;BME280;25286;48.870;9.084;2022-08-19T12:40:13;97662.13;;;23.08;62.63
39593;BME280;25286;48.870;9.084;2022-08-19T12:42:39;97658.00;;;23.14;62.63
39593;BME280;25286;48.870;9.084;2022-08-19T12:45:12;97661.09;;;23.21;62.51
39593;BME280;25286;48.870;9.084;2022-08-19T12:47:39;97658.06;;;23.35;62.43
39593;BME280;25286;48.870;9.084;2022-08-19T12:50:05;97659.59;;;23.32;61.59
39593;BME280;25286;48.870;9.084;2022-08-19T12:52:37;97660.88;;;23.35;61.51
39593;BME280;25286;48.870;9.084;2022-08-19T12:55:05;97658.25;;;23.30;61.52
39593;BME280;25286;48.870;9.084;2022-08-19T12:57:31;97665.31;;;23.36;61.62
39593;BME280;25286;48.870;9.084;2022-08-19T13:00:07;97672.06;;;23.35;60.84
39593;BME280;25286;48.870;9.084;2022-08-19T13:02:37;97670.41;;;23.43;61.21
39593;BME280;25286;48.870;9.084;2022-08-19T13:05:03;97665.63;;;23.43;59.72
39593;BME280;25286;48.870;9.084;2022-08-19T13:07:31;97666.47;;;23.35;61.21
39593;BME280;25286;48.870;9.084;2022-08-19T13:09:57;97668.63;;;23.29;62.25
39593;BME280;25286;48.870;9.084;2022-08-19T13:12:23;97671.59;;;23.33;62.41
39593;BME280;25286;48.870;9.084;2022-08-19T13:14:52;97670.03;;;23.15;63.36